RJSM(METAR)
10/21 04:00
METAR RJSM 201900Z 25004KT 9999 FEW015 07/05 Q1027 RMK 1ST015 A3034=
戻る
トップページへ戻る
IMOC Co,.Ltd.